createdAt,value
2023-01-10T00:00:26.523Z,5.90
2023-01-10T00:02:53.472Z,6.00
2023-01-10T00:05:20.187Z,6.00
2023-01-10T00:07:46.839Z,5.90
2023-01-10T00:10:14.167Z,5.80
2023-01-10T00:13:03.727Z,5.80
2023-01-10T00:15:33.935Z,6.00
2023-01-10T00:18:00.637Z,5.90
2023-01-10T00:20:27.417Z,6.00
2023-01-10T00:22:54.165Z,6.00
2023-01-10T00:25:21.260Z,5.90
2023-01-10T00:28:06.977Z,5.90
2023-01-10T00:30:35.206Z,6.00
2023-01-10T00:33:02.743Z,6.10
2023-01-10T00:35:29.461Z,6.10
2023-01-10T00:38:01.476Z,5.90
2023-01-10T00:40:28.235Z,5.90
2023-01-10T00:43:13.497Z,5.90
2023-01-10T00:45:40.115Z,5.80
2023-01-10T00:48:06.763Z,5.80
2023-01-10T00:50:33.482Z,5.90
2023-01-10T00:53:00.165Z,6.00
2023-01-10T00:55:26.828Z,5.80
2023-01-10T00:57:53.476Z,5.70
2023-01-10T01:00:20.283Z,5.70
2023-01-10T01:02:48.562Z,5.70
2023-01-10T01:05:15.261Z,5.70
2023-01-10T01:07:41.838Z,5.70
2023-01-10T01:10:26.832Z,5.80
2023-01-10T01:12:54.352Z,5.80
2023-01-10T01:15:21.908Z,5.80
2023-01-10T01:17:48.670Z,5.60
2023-01-10T01:20:15.284Z,5.60
2023-01-10T01:22:42.246Z,5.50
2023-01-10T01:25:09.002Z,5.50
2023-01-10T01:27:35.789Z,5.50
2023-01-10T01:30:02.479Z,5.50
2023-01-10T01:32:29.155Z,5.50
2023-01-10T01:34:56.236Z,5.40
2023-01-10T01:37:22.890Z,5.40
2023-01-10T01:39:49.502Z,5.40
2023-01-10T01:42:25.494Z,5.40
2023-01-10T01:45:11.436Z,5.30
2023-01-10T01:47:57.940Z,5.30
2023-01-10T01:50:24.518Z,5.50
2023-01-10T01:52:52.162Z,5.40
2023-01-10T01:55:18.798Z,5.40
2023-01-10T01:57:46.496Z,5.40
2023-01-10T02:00:13.406Z,5.30
2023-01-10T02:02:54.131Z,5.30
2023-01-10T02:05:32.307Z,5.20
2023-01-10T02:07:59.783Z,5.10
2023-01-10T02:10:41.371Z,5.20
2023-01-10T02:13:09.429Z,5.10
2023-01-10T02:15:36.167Z,5.00
2023-01-10T02:18:03.438Z,5.10
2023-01-10T02:20:33.421Z,5.10
2023-01-10T02:23:15.371Z,5.20
2023-01-10T02:25:45.061Z,5.00
2023-01-10T02:28:30.495Z,5.10
2023-01-10T02:31:15.991Z,5.00
2023-01-10T02:33:42.672Z,4.90
2023-01-10T02:36:12.244Z,4.80
2023-01-10T02:39:00.880Z,4.80
2023-01-10T02:41:30.519Z,4.80
2023-01-10T02:44:04.401Z,5.00
2023-01-10T02:46:32.103Z,4.90
2023-01-10T02:48:58.844Z,4.90
2023-01-10T02:51:27.419Z,4.90
2023-01-10T02:54:03.324Z,5.00
2023-01-10T02:56:32.926Z,5.00
2023-01-10T02:58:59.556Z,5.00
2023-01-10T03:01:29.288Z,5.00
2023-01-10T03:04:05.033Z,5.10
2023-01-10T03:06:31.612Z,5.00
2023-01-10T03:09:04.222Z,5.20
2023-01-10T03:11:40.855Z,5.10
2023-01-10T03:14:14.360Z,4.90
2023-01-10T03:16:42.211Z,5.00
2023-01-10T03:19:11.648Z,5.00
2023-01-10T03:21:39.040Z,5.00
2023-01-10T03:24:07.735Z,4.90
2023-01-10T03:26:43.970Z,4.70
2023-01-10T03:29:12.432Z,4.80
2023-01-10T03:31:44.915Z,4.80
2023-01-10T03:34:12.134Z,4.80
2023-01-10T03:36:58.989Z,5.00
2023-01-10T03:39:40.820Z,5.00
2023-01-10T03:42:26.302Z,5.00
2023-01-10T03:44:58.337Z,5.10
2023-01-10T03:47:31.108Z,5.00
2023-01-10T03:49:59.839Z,4.90
2023-01-10T03:52:26.965Z,4.90
2023-01-10T03:54:54.092Z,4.80
2023-01-10T03:57:22.785Z,4.80
2023-01-10T03:59:51.941Z,4.80
2023-01-10T04:02:18.807Z,4.60
2023-01-10T04:04:45.420Z,4.60
2023-01-10T04:07:12.046Z,4.60
2023-01-10T04:09:38.692Z,4.70
2023-01-10T04:12:05.373Z,4.80
2023-01-10T04:14:32.809Z,4.80
2023-01-10T04:16:59.856Z,4.80
2023-01-10T04:19:26.618Z,4.70
2023-01-10T04:21:53.251Z,4.70
2023-01-10T04:24:19.933Z,4.70
2023-01-10T04:26:46.589Z,4.80
2023-01-10T04:29:13.186Z,4.90
2023-01-10T04:31:40.121Z,4.90
2023-01-10T04:34:07.681Z,4.90
2023-01-10T04:36:36.420Z,4.80
2023-01-10T04:39:03.391Z,4.70
2023-01-10T04:41:30.121Z,4.80
2023-01-10T04:43:56.911Z,4.80
2023-01-10T04:46:23.508Z,4.80
2023-01-10T04:48:50.135Z,4.70
2023-01-10T04:51:16.819Z,4.60
2023-01-10T04:53:43.416Z,4.60
2023-01-10T04:56:14.945Z,4.60
2023-01-10T04:58:41.575Z,4.60
2023-01-10T05:01:12.420Z,4.60
2023-01-10T05:03:39.115Z,4.60
2023-01-10T05:06:05.915Z,4.70
2023-01-10T05:08:32.869Z,4.70
2023-01-10T05:11:00.611Z,4.60
2023-01-10T05:13:27.306Z,4.60
2023-01-10T05:15:55.349Z,4.60
2023-01-10T05:18:22.157Z,4.70
2023-01-10T05:20:48.819Z,4.80
2023-01-10T05:23:15.441Z,4.80
2023-01-10T05:25:42.067Z,4.70
2023-01-10T05:28:08.709Z,4.70
2023-01-10T05:30:35.696Z,4.60
2023-01-10T05:33:05.139Z,4.60
2023-01-10T05:35:31.797Z,4.60
2023-01-10T05:37:58.408Z,4.60
2023-01-10T05:40:25.060Z,4.60
2023-01-10T05:42:51.708Z,4.60
2023-01-10T05:45:18.395Z,4.60
2023-01-10T05:47:45.422Z,4.60
2023-01-10T05:50:12.087Z,4.60
2023-01-10T05:52:38.747Z,4.60
2023-01-10T05:55:05.522Z,4.60
2023-01-10T05:57:32.214Z,4.70
2023-01-10T05:59:58.853Z,4.80
2023-01-10T06:02:26.594Z,4.80
2023-01-10T06:04:55.372Z,4.80
2023-01-10T06:07:22.406Z,4.80
2023-01-10T06:09:51.331Z,4.70
2023-01-10T06:12:20.895Z,4.70
2023-01-10T06:14:47.582Z,4.80
2023-01-10T06:17:14.255Z,4.80
2023-01-10T06:19:40.832Z,4.80
2023-01-10T06:22:07.548Z,4.80
2023-01-10T06:24:34.131Z,4.90
2023-01-10T06:27:00.800Z,4.90
2023-01-10T06:29:27.451Z,4.90
2023-01-10T06:31:54.080Z,4.90
2023-01-10T06:34:20.710Z,4.80
2023-01-10T06:36:47.361Z,4.80
2023-01-10T06:39:13.998Z,4.80
2023-01-10T06:41:40.596Z,5.00
2023-01-10T06:44:07.235Z,4.90
2023-01-10T06:46:35.005Z,5.00
2023-01-10T06:49:01.703Z,4.90
2023-01-10T06:51:28.360Z,5.00
2023-01-10T06:53:54.999Z,5.00
2023-01-10T06:56:21.617Z,4.90
2023-01-10T06:58:48.711Z,4.80
2023-01-10T07:01:16.409Z,4.80
2023-01-10T07:03:43.230Z,4.80
2023-01-10T07:06:10.346Z,4.90
2023-01-10T07:08:37.847Z,4.90
2023-01-10T07:11:04.665Z,4.90
2023-01-10T07:13:31.270Z,5.10
2023-01-10T07:16:05.189Z,5.10
2023-01-10T07:18:32.270Z,5.00
2023-01-10T07:20:58.939Z,4.90
2023-01-10T07:23:25.564Z,4.90
2023-01-10T07:25:52.239Z,5.00
2023-01-10T07:28:19.089Z,4.90
2023-01-10T07:30:45.758Z,4.90
2023-01-10T07:33:12.420Z,5.00
2023-01-10T07:35:39.281Z,5.00
2023-01-10T07:38:05.907Z,4.90
2023-01-10T07:40:32.664Z,5.00
2023-01-10T07:43:00.295Z,5.00
2023-01-10T07:45:27.729Z,5.10
2023-01-10T07:47:58.220Z,5.10
2023-01-10T07:50:25.447Z,5.00
2023-01-10T07:52:52.136Z,5.00
2023-01-10T07:55:18.839Z,4.90
2023-01-10T07:57:45.514Z,5.00
2023-01-10T08:00:13.541Z,5.10
2023-01-10T08:02:40.217Z,4.90
2023-01-10T08:05:07.358Z,5.00
2023-01-10T08:07:34.091Z,4.90
2023-01-10T08:10:00.693Z,4.90
2023-01-10T08:12:27.403Z,5.00
2023-01-10T08:14:54.020Z,5.00
2023-01-10T08:17:20.674Z,4.90
2023-01-10T08:19:47.281Z,4.80
2023-01-10T08:22:13.967Z,4.70
2023-01-10T08:24:40.623Z,4.70
2023-01-10T08:27:07.307Z,4.70
2023-01-10T08:29:33.945Z,4.70
2023-01-10T08:32:00.563Z,4.70
2023-01-10T08:34:27.358Z,4.70
2023-01-10T08:36:54.745Z,4.60
2023-01-10T08:39:26.512Z,4.70
2023-01-10T08:41:53.510Z,4.90
2023-01-10T08:44:20.159Z,4.70
2023-01-10T08:46:46.861Z,4.80
2023-01-10T08:49:13.904Z,4.80
2023-01-10T08:51:40.761Z,4.70
2023-01-10T08:54:07.490Z,4.70
2023-01-10T08:56:36.181Z,4.70
2023-01-10T08:59:03.356Z,4.70
2023-01-10T09:01:30.170Z,4.80
2023-01-10T09:03:56.959Z,4.80
2023-01-10T09:06:24.286Z,4.80
2023-01-10T09:08:50.935Z,4.90
2023-01-10T09:11:17.658Z,5.00
2023-01-10T09:13:44.256Z,4.90
2023-01-10T09:16:10.966Z,4.90
2023-01-10T09:18:37.708Z,4.90
2023-01-10T09:21:04.388Z,4.90
2023-01-10T09:23:31.051Z,5.00
2023-01-10T09:25:57.950Z,5.10
2023-01-10T09:28:24.679Z,5.20
2023-01-10T09:30:51.335Z,5.30
2023-01-10T09:33:18.277Z,5.30
2023-01-10T09:35:45.011Z,5.40
2023-01-10T09:38:12.806Z,5.40
2023-01-10T09:40:48.398Z,5.40
2023-01-10T09:43:33.351Z,5.30
2023-01-10T09:46:04.158Z,5.40
2023-01-10T09:48:30.766Z,5.60
2023-01-10T09:51:15.666Z,5.50
2023-01-10T09:53:43.559Z,5.70
2023-01-10T09:56:10.997Z,5.80
2023-01-10T09:58:38.491Z,5.80
2023-01-10T10:01:10.974Z,5.60
2023-01-10T10:03:56.726Z,5.70
2023-01-10T10:06:23.890Z,5.80
2023-01-10T10:08:50.842Z,5.70
2023-01-10T10:11:17.489Z,5.60
2023-01-10T10:13:47.606Z,5.70
2023-01-10T10:16:23.370Z,5.70
2023-01-10T10:18:55.913Z,5.80
2023-01-10T10:21:35.505Z,5.70
2023-01-10T10:24:11.037Z,5.90
2023-01-10T10:26:52.894Z,5.80
2023-01-10T10:29:19.499Z,5.80
2023-01-10T10:32:01.667Z,5.70
2023-01-10T10:34:38.404Z,5.80
2023-01-10T10:37:23.875Z,5.80
2023-01-10T10:39:54.157Z,5.80
2023-01-10T10:42:21.464Z,6.00
2023-01-10T10:44:49.282Z,5.90
2023-01-10T10:47:17.573Z,6.00
2023-01-10T10:49:44.182Z,6.00
2023-01-10T10:52:40.196Z,5.90
2023-01-10T10:55:07.452Z,5.90
2023-01-10T10:57:35.321Z,5.90
2023-01-10T11:00:02.805Z,6.00
2023-01-10T11:02:30.753Z,6.00
2023-01-10T11:05:02.541Z,6.10
2023-01-10T11:07:32.169Z,6.00
2023-01-10T11:10:08.343Z,6.00
2023-01-10T11:12:36.442Z,6.10
2023-01-10T11:15:03.775Z,6.10
2023-01-10T11:17:31.579Z,6.20
2023-01-10T11:20:02.341Z,6.20
2023-01-10T11:22:31.349Z,6.20
2023-01-10T11:25:01.831Z,6.10
2023-01-10T11:27:33.011Z,6.10
2023-01-10T11:30:06.443Z,6.10
2023-01-10T11:32:33.055Z,6.20
2023-01-10T11:35:01.376Z,6.10
2023-01-10T11:37:32.725Z,6.20
2023-01-10T11:40:19.964Z,6.30
2023-01-10T11:42:47.256Z,6.20
2023-01-10T11:45:20.031Z,6.20
2023-01-10T11:48:19.399Z,6.40
2023-01-10T11:50:50.223Z,6.40
2023-01-10T11:53:43.421Z,6.40
2023-01-10T11:56:11.274Z,6.30
2023-01-10T11:58:38.523Z,6.40
2023-01-10T12:01:05.639Z,6.40
2023-01-10T12:03:36.764Z,6.40
2023-01-10T12:06:06.393Z,6.50
2023-01-10T12:08:34.140Z,6.60
2023-01-10T12:11:02.501Z,6.50
2023-01-10T12:13:30.732Z,6.30
2023-01-10T12:16:15.991Z,6.30
2023-01-10T12:18:42.769Z,6.20
2023-01-10T12:21:10.243Z,6.10
2023-01-10T12:23:41.502Z,6.50
2023-01-10T12:26:12.218Z,6.20
2023-01-10T12:28:41.255Z,6.30
2023-01-10T12:31:12.177Z,6.30
2023-01-10T12:33:40.491Z,6.50
2023-01-10T12:36:07.338Z,6.30
2023-01-10T12:38:57.540Z,6.40
2023-01-10T12:41:54.944Z,6.40
2023-01-10T12:44:27.685Z,6.30
2023-01-10T12:47:07.477Z,6.30
2023-01-10T12:49:37.449Z,6.30
2023-01-10T12:52:05.945Z,6.40
2023-01-10T12:54:33.782Z,6.30
2023-01-10T12:57:02.942Z,6.20
2023-01-10T12:59:38.071Z,6.30
2023-01-10T13:02:06.811Z,6.20
2023-01-10T13:04:35.500Z,6.30
2023-01-10T13:07:02.562Z,6.20
2023-01-10T13:09:30.302Z,6.00
2023-01-10T13:12:17.178Z,6.10
2023-01-10T13:14:46.795Z,6.30
2023-01-10T13:17:20.358Z,6.10
2023-01-10T13:20:06.903Z,6.10
2023-01-10T13:22:36.670Z,6.20
2023-01-10T13:25:03.522Z,6.30
2023-01-10T13:27:32.523Z,6.10
2023-01-10T13:29:59.485Z,6.10
2023-01-10T13:32:34.182Z,6.00
2023-01-10T13:35:30.185Z,6.00
2023-01-10T13:37:56.900Z,6.20
2023-01-10T13:40:28.319Z,6.00
2023-01-10T13:43:20.130Z,6.10
2023-01-10T13:45:46.788Z,6.00
2023-01-10T13:48:28.179Z,6.00
2023-01-10T13:51:06.208Z,6.00
2023-01-10T13:53:32.893Z,6.20
2023-01-10T13:55:59.594Z,6.10
2023-01-10T13:58:57.446Z,6.00
2023-01-10T14:01:45.321Z,6.00
2023-01-10T14:04:20.249Z,6.00
2023-01-10T14:06:51.550Z,6.00
2023-01-10T14:09:19.772Z,6.00
2023-01-10T14:11:54.789Z,6.00
2023-01-10T14:14:26.435Z,6.00
2023-01-10T14:16:54.819Z,6.00
2023-01-10T14:19:28.793Z,5.90
2023-01-10T14:21:56.654Z,5.90
2023-01-10T14:24:25.010Z,5.90
2023-01-10T14:26:54.447Z,5.90
2023-01-10T14:29:22.770Z,5.90
2023-01-10T14:31:55.512Z,5.90
2023-01-10T14:34:24.116Z,5.90
2023-01-10T14:37:01.675Z,6.00
2023-01-10T14:39:29.134Z,6.10
2023-01-10T14:42:00.445Z,6.20
2023-01-10T14:44:37.426Z,5.90
2023-01-10T14:47:04.602Z,5.70
2023-01-10T14:49:35.486Z,5.50
2023-01-10T14:52:21.386Z,5.40
2023-01-10T14:54:56.196Z,5.30
2023-01-10T14:57:23.971Z,5.20
2023-01-10T14:59:51.484Z,5.20
2023-01-10T15:02:23.484Z,5.20
2023-01-10T15:04:55.484Z,5.20
2023-01-10T15:07:23.845Z,5.10
2023-01-10T15:09:51.573Z,5.10
2023-01-10T15:12:19.249Z,5.10
2023-01-10T15:14:46.987Z,5.10
2023-01-10T15:17:20.509Z,5.10
2023-01-10T15:19:57.055Z,5.00
2023-01-10T15:22:26.848Z,5.00
2023-01-10T15:24:57.050Z,5.00
2023-01-10T15:27:24.100Z,5.00
2023-01-10T15:29:50.904Z,5.00
2023-01-10T15:32:20.623Z,4.90
2023-01-10T15:34:51.596Z,4.90
2023-01-10T15:37:26.990Z,4.80
2023-01-10T15:39:54.596Z,4.80
2023-01-10T15:42:22.561Z,4.70
2023-01-10T15:44:53.311Z,4.60
2023-01-10T15:47:35.679Z,4.60
2023-01-10T15:50:03.735Z,4.50
2023-01-10T15:52:30.800Z,4.60
2023-01-10T15:54:57.925Z,4.50
2023-01-10T15:57:30.315Z,4.50
2023-01-10T15:59:58.921Z,4.40
2023-01-10T16:02:39.105Z,4.40
2023-01-10T16:09:06.036Z,4.40
2023-01-10T16:15:20.251Z,4.40
2023-01-10T16:17:48.852Z,4.40
2023-01-10T16:20:20.213Z,4.40
2023-01-10T16:22:53.198Z,4.30
2023-01-10T16:28:36.033Z,4.30
2023-01-10T16:34:14.244Z,4.20
2023-01-10T16:36:47.867Z,4.20
2023-01-10T16:39:14.670Z,4.00
2023-01-10T16:42:03.130Z,4.00
2023-01-10T16:44:30.294Z,3.90
2023-01-10T16:46:57.064Z,3.90
2023-01-10T16:49:23.710Z,3.80
2023-01-10T16:51:57.928Z,3.80
2023-01-10T16:54:28.452Z,3.70
2023-01-10T16:56:55.851Z,3.70
2023-01-10T16:59:22.811Z,3.60
2023-01-10T17:01:54.591Z,3.50
2023-01-10T17:07:07.866Z,3.60
2023-01-10T17:09:41.834Z,3.50
2023-01-10T17:12:20.333Z,3.50
2023-01-10T17:14:50.253Z,3.60
2023-01-10T17:17:17.061Z,3.70
2023-01-10T17:19:48.890Z,3.70
2023-01-10T17:22:19.229Z,3.80
2023-01-10T17:24:51.468Z,3.80
2023-01-10T17:27:21.704Z,3.70
2023-01-10T17:29:48.383Z,3.70
2023-01-10T17:32:15.052Z,3.70
2023-01-10T17:34:41.857Z,3.70
2023-01-10T17:37:18.475Z,3.60
2023-01-10T17:39:54.116Z,3.60
2023-01-10T17:42:24.144Z,3.60
2023-01-10T17:45:01.175Z,3.60
2023-01-10T17:50:29.594Z,3.60
2023-01-10T17:53:02.871Z,3.50
2023-01-10T17:55:29.734Z,3.50
2023-01-10T17:58:06.584Z,3.40
2023-01-10T18:00:53.075Z,3.40
2023-01-10T18:03:20.949Z,3.40
2023-01-10T18:05:51.669Z,3.30
2023-01-10T18:08:18.592Z,3.30
2023-01-10T18:10:45.215Z,3.20
2023-01-10T18:13:12.375Z,3.10
2023-01-10T18:15:47.005Z,3.10
2023-01-10T18:18:14.097Z,3.00
2023-01-10T18:20:41.763Z,2.90
2023-01-10T18:23:21.108Z,2.80
2023-01-10T18:25:50.825Z,2.70
2023-01-10T18:28:21.520Z,2.70
2023-01-10T18:30:55.188Z,2.60
2023-01-10T18:33:34.508Z,2.60
2023-01-10T18:36:20.741Z,2.50
2023-01-10T18:38:47.983Z,2.40
2023-01-10T18:41:15.404Z,2.20
2023-01-10T18:43:45.396Z,2.20
2023-01-10T18:46:19.638Z,2.20
2023-01-10T18:48:47.084Z,2.10
2023-01-10T18:53:59.406Z,2.00
2023-01-10T18:59:37.340Z,2.00
2023-01-10T19:02:06.568Z,1.90
2023-01-10T19:04:33.308Z,1.80
2023-01-10T19:07:00.083Z,1.80
2023-01-10T19:12:32.574Z,1.70
2023-01-10T19:15:00.453Z,1.70
2023-01-10T19:17:28.931Z,1.60
2023-01-10T19:19:55.660Z,1.60
2023-01-10T19:22:23.530Z,1.60
2023-01-10T19:24:50.255Z,1.50
2023-01-10T19:27:18.983Z,1.50
2023-01-10T19:29:48.283Z,1.40
2023-01-10T19:32:18.444Z,1.30
2023-01-10T19:34:46.414Z,1.20
2023-01-10T19:37:13.427Z,1.10
2023-01-10T19:39:40.069Z,1.10
2023-01-10T19:42:06.784Z,1.10
2023-01-10T19:44:33.489Z,1.00
2023-01-10T19:47:00.265Z,1.00
2023-01-10T19:49:28.034Z,1.00
2023-01-10T19:51:56.124Z,1.00
2023-01-10T19:54:25.652Z,1.00
2023-01-10T19:56:57.756Z,0.80
2023-01-10T19:59:26.793Z,0.70
2023-01-10T20:01:53.629Z,0.70
2023-01-10T20:04:20.493Z,0.70
2023-01-10T20:09:29.128Z,0.70
2023-01-10T20:11:56.194Z,0.70
2023-01-10T20:14:24.876Z,0.70
2023-01-10T20:16:52.366Z,0.70
2023-01-10T20:19:19.074Z,0.60
2023-01-10T20:21:45.764Z,0.50
2023-01-10T20:24:13.441Z,0.50
2023-01-10T20:26:40.491Z,0.50
2023-01-10T20:29:14.071Z,0.40
2023-01-10T20:31:42.875Z,0.40
2023-01-10T20:34:09.596Z,0.30
2023-01-10T20:36:36.275Z,0.40
2023-01-10T20:39:03.543Z,0.30
2023-01-10T20:41:30.569Z,0.40
2023-01-10T20:43:57.816Z,0.30
2023-01-10T20:49:24.475Z,0.30
2023-01-10T20:51:57.910Z,0.30
2023-01-10T20:55:25.890Z,0.20
2023-01-10T20:58:37.101Z,0.10
2023-01-10T21:01:02.671Z,0.00
2023-01-10T21:03:29.671Z,-0.10
2023-01-10T21:05:58.623Z,-0.10
2023-01-10T21:08:29.679Z,-0.10
2023-01-10T21:10:57.086Z,0.00
2023-01-10T21:13:23.957Z,0.00
2023-01-10T21:15:52.984Z,0.10
2023-01-10T21:18:24.720Z,0.10
2023-01-10T21:21:05.825Z,0.00
2023-01-10T21:23:41.555Z,0.10
2023-01-10T21:26:09.458Z,0.20
2023-01-10T21:28:42.186Z,0.20
2023-01-10T21:31:09.829Z,0.20
2023-01-10T21:33:37.205Z,0.30
2023-01-10T21:36:04.240Z,0.30
2023-01-10T21:38:30.936Z,0.30
2023-01-10T21:41:04.449Z,0.40
2023-01-10T21:43:31.640Z,0.40
2023-01-10T21:46:01.665Z,0.40
2023-01-10T21:48:28.686Z,0.40
2023-01-10T21:50:55.483Z,0.50
2023-01-10T21:53:22.827Z,0.50
2023-01-10T21:55:49.487Z,0.50
2023-01-10T21:58:16.160Z,0.50
2023-01-10T22:00:43.025Z,0.50
2023-01-10T22:03:09.820Z,0.50
2023-01-10T22:05:36.475Z,0.50
2023-01-10T22:08:03.241Z,0.50
2023-01-10T22:10:30.264Z,0.50
2023-01-10T22:12:56.900Z,0.50
2023-01-10T22:15:23.575Z,0.50
2023-01-10T22:17:50.238Z,0.40
2023-01-10T22:20:16.958Z,0.40
2023-01-10T22:22:43.675Z,0.40
2023-01-10T22:25:10.387Z,0.50
2023-01-10T22:27:37.214Z,0.50
2023-01-10T22:30:04.523Z,0.50
2023-01-10T22:32:31.125Z,0.50
2023-01-10T22:34:57.920Z,0.50
2023-01-10T22:37:24.607Z,0.50
2023-01-10T22:39:51.296Z,0.50
2023-01-10T22:42:17.915Z,0.50
2023-01-10T22:44:44.596Z,0.50
2023-01-10T22:47:11.308Z,0.50
2023-01-10T22:49:38.628Z,0.50
2023-01-10T22:52:08.396Z,0.50
2023-01-10T22:54:35.205Z,0.40
2023-01-10T22:57:01.851Z,0.50
2023-01-10T22:59:28.539Z,0.40
2023-01-10T23:01:55.159Z,0.40
2023-01-10T23:04:25.967Z,0.40
2023-01-10T23:06:52.717Z,0.40
2023-01-10T23:09:19.389Z,0.40
2023-01-10T23:11:46.156Z,0.40
2023-01-10T23:14:12.964Z,0.40
2023-01-10T23:16:39.698Z,0.50
2023-01-10T23:19:06.328Z,0.50
2023-01-10T23:21:32.904Z,0.40
2023-01-10T23:24:00.275Z,0.40
2023-01-10T23:26:26.950Z,0.40
2023-01-10T23:28:53.619Z,0.40
2023-01-10T23:31:21.904Z,0.40
2023-01-10T23:33:48.958Z,0.40
2023-01-10T23:36:16.155Z,0.40
2023-01-10T23:38:42.977Z,0.50
2023-01-10T23:41:10.039Z,0.50
2023-01-10T23:43:37.951Z,0.50
2023-01-10T23:46:05.226Z,0.50
2023-01-10T23:48:31.975Z,0.50
2023-01-10T23:50:58.799Z,0.50
2023-01-10T23:53:25.661Z,0.50
2023-01-10T23:55:53.331Z,0.50
2023-01-10T23:58:20.392Z,0.40
